메인 페이지
METAR-TAF:

METAR-TAF

공항 :

산토리니 섬, 그리스

위도: 36-24N, 경도: 025-29E, 고도: 38m

현재 날씨관측

예보는 21분 전, 08:50시(UTC)에 발표되었습니다.
7kt
온도 17°C
습도 48%
기압 1016 hPa
시정 10km 이상
1500m 미만 상공 구름 및 적란운 없음

METAR: LGSR 090850Z 01007KT CAVOK 17/06 Q1016

시각: 11:11 (09:11 UTC)

예보

예보는 4 시간 11분 전, 05:00시(UTC)에 발표되었습니다.
예보 대상 시간: 09일 06시부터 10일 06시까지 (UTC)
12kt
시정 10km 이상
고도 2000ft 상공 구름 조금
전환 중
09일 10시부터 09일 12시까지 (UTC)
여러 방향의 바람 3kt
전환 중
09일 21시부터 09일 23시까지 (UTC)
남남동12kt
확률 40% :
일시적
10일 03시부터 10일 06시까지 (UTC)
시정: 5000m
고도 1500ft 상공 구름 보통
고도 1800ft 상공 구름 조금, 타워링 적운.
고도 3000ft 상공 구름 많음

TAF: LGSR 090500Z 0906/1006 35012KT 9999 FEW020 BECMG 0910/0912 VRB03KT BECMG 0921/0923 16012KT PROB40 TEMPO 1003/1006 5000 RA SCT015 FEW018TCU BKN030

4,000개 이상의 공항 관측 자료 및 예보 (METAR 및 TAF 보고).

지도상에서 검색 가능한 기상관측소가 노란 점과 빨간 점으로 표시되어 있습니다.

기상관측소 명을 보려면 표시 위로 마우스를 이동하세요.

날씨 관측과 예보를 보려면 클릭하세요.

지도 변경 : 확대하려면 엑스 표시가 있는 녹색 버튼, 축소하려면 빼기 표시가 있는 녹색 버튼, 다음 페이지의 지도를 보려면 녹색 화살표를 클릭하세요.


METAR-TAF: